Time;durP1;ratioP1;P1;durP2;ratioP2;P2;SDS_P1;SDS_P2;PMS_P1;PMS_P2;Temp;Humidity;BMP_temperature;BMP_pressure;BME280_temperature;BME280_humidity;BME280_pressure;Samples;Min_cycle;Max_cycle;Signal;HPM_P1;HPM_P2
2022/01/10 00:00:37;;;;;;;18.90;8.40;;;2.10;99.90;;;;;;5028825;28;20044;-68
2022/01/10 00:03:03;;;;;;;13.63;7.25;;;2.10;99.90;;;;;;5031744;28;20029;-69
2022/01/10 00:05:29;;;;;;;14.73;7.85;;;2.10;99.90;;;;;;5031102;28;20026;-68
2022/01/10 00:07:55;;;;;;;14.98;7.93;;;2.10;99.90;;;;;;5030929;28;20370;-68
2022/01/10 00:10:20;;;;;;;15.63;7.93;;;2.10;99.90;;;;;;5029956;28;20033;-69
2022/01/10 00:12:46;;;;;;;16.20;8.20;;;2.10;99.90;;;;;;5011626;28;20478;-69
2022/01/10 00:15:15;;;;;;;17.52;7.97;;;2.10;99.90;;;;;;5022947;28;20500;-68
2022/01/10 00:17:44;;;;;;;18.00;8.90;;;2.20;99.90;;;;;;5032135;28;20044;-68
2022/01/10 00:20:13;;;;;;;11.52;7.07;;;2.20;99.90;;;;;;5027955;28;20137;-69
2022/01/10 00:22:45;;;;;;;17.50;7.85;;;2.20;99.90;;;;;;5025809;28;20021;-68
2022/01/10 00:25:17;;;;;;;15.68;8.27;;;2.20;99.90;;;;;;5013606;28;20037;-69
2022/01/10 00:27:43;;;;;;;16.70;8.13;;;2.30;99.90;;;;;;5029207;28;20036;-68
2022/01/10 00:30:11;;;;;;;15.82;8.23;;;2.30;99.90;;;;;;5030171;28;20465;-69
2022/01/10 00:32:38;;;;;;;15.30;7.85;;;2.30;99.90;;;;;;5024728;28;20025;-68
2022/01/10 00:35:05;;;;;;;16.02;8.90;;;2.20;99.90;;;;;;5022660;28;20427;-68
2022/01/10 00:37:31;;;;;;;16.63;8.57;;;2.30;99.90;;;;;;5016734;28;20029;-68
2022/01/10 00:39:57;;;;;;;14.32;8.45;;;2.30;99.90;;;;;;5026064;28;20120;-69
2022/01/10 00:42:23;;;;;;;14.75;8.38;;;2.30;99.90;;;;;;5011564;28;20125;-68
2022/01/10 00:44:53;;;;;;;16.55;8.77;;;2.30;99.90;;;;;;5011436;28;20482;-68
2022/01/10 00:47:19;;;;;;;15.95;8.68;;;2.30;99.90;;;;;;5015654;28;20436;-69
2022/01/10 00:49:46;;;;;;;16.40;8.98;;;2.20;99.90;;;;;;5028855;28;20026;-69
2022/01/10 00:52:12;;;;;;;18.55;8.60;;;2.30;99.90;;;;;;5011125;28;20175;-68
2022/01/10 00:54:38;;;;;;;18.55;8.77;;;2.20;99.90;;;;;;5010870;28;20053;-68
2022/01/10 00:57:04;;;;;;;17.20;8.90;;;2.20;99.90;;;;;;5010824;28;20113;-70
2022/01/10 00:59:30;;;;;;;15.30;8.32;;;2.30;99.90;;;;;;5028012;28;20178;-69
2022/01/10 01:01:56;;;;;;;16.27;8.18;;;2.20;99.90;;;;;;5031269;28;20030;-68
2022/01/10 01:04:22;;;;;;;15.35;8.70;;;2.20;99.90;;;;;;5027816;28;20061;-69
2022/01/10 01:06:48;;;;;;;14.70;8.02;;;2.20;99.90;;;;;;5019517;28;20366;-68
2022/01/10 01:09:17;;;;;;;14.43;8.80;;;2.20;99.90;;;;;;5029862;28;20025;-68
2022/01/10 01:14:10;;;;;;;16.95;8.57;;;2.30;99.90;;;;;;5027812;28;20021;-68
2022/01/10 01:24:14;;;;;;;16.52;8.60;;;2.30;99.90;;;;;;5027814;28;20056;-68
2022/01/10 01:26:45;;;;;;;21.33;9.00;;;2.30;99.90;;;;;;5012231;28;20431;-68
2022/01/10 01:29:15;;;;;;;16.85;8.73;;;2.30;99.90;;;;;;5023049;28;20033;-68
2022/01/10 01:31:41;;;;;;;14.98;8.65;;;2.30;99.90;;;;;;5024447;28;20018;-68
2022/01/10 01:34:08;;;;;;;17.10;9.00;;;2.30;99.90;;;;;;5024836;28;20128;-68
2022/01/10 01:36:34;;;;;;;16.17;9.20;;;2.30;99.90;;;;;;5032396;28;20087;-68
2022/01/10 01:39:05;;;;;;;15.25;8.32;;;2.30;99.90;;;;;;5029362;28;20029;-67
2022/01/10 01:43:59;;;;;;;13.15;8.05;;;2.30;99.90;;;;;;5034034;28;20052;-68
2022/01/10 01:46:25;;;;;;;16.85;8.45;;;2.30;99.90;;;;;;5035791;28;20074;-68
2022/01/10 01:48:52;;;;;;;15.30;8.65;;;2.30;99.90;;;;;;5024289;28;20440;-67
2022/01/10 01:51:19;;;;;;;14.75;8.63;;;2.30;99.90;;;;;;5029282;28;20112;-68
2022/01/10 01:53:45;;;;;;;15.93;8.52;;;2.30;99.90;;;;;;5014372;28;20025;-68
2022/01/10 01:56:13;;;;;;;18.35;8.73;;;2.30;99.90;;;;;;5029756;28;20116;-68
2022/01/10 01:58:40;;;;;;;15.75;8.63;;;2.30;99.90;;;;;;5010054;28;20470;-69
2022/01/10 02:01:07;;;;;;;16.08;8.75;;;2.30;99.90;;;;;;5016172;28;20039;-68
2022/01/10 02:03:33;;;;;;;19.23;9.10;;;2.30;99.90;;;;;;5029247;28;20118;-68
2022/01/10 02:06:00;;;;;;;18.75;8.98;;;2.30;99.90;;;;;;5024427;28;20425;-68
2022/01/10 02:08:26;;;;;;;21.17;8.95;;;2.20;99.90;;;;;;5009506;28;20052;-68
2022/01/10 02:10:52;;;;;;;17.40;8.85;;;2.20;99.90;;;;;;5010205;28;20032;-67
2022/01/10 02:13:18;;;;;;;17.38;8.35;;;2.20;99.90;;;;;;5012128;28;20029;-68
2022/01/10 02:18:20;;;;;;;16.37;9.67;;;2.20;99.90;;;;;;5049330;28;20021;-68
2022/01/10 02:20:46;;;;;;;16.33;9.05;;;2.20;99.90;;;;;;5035731;28;20021;-69
2022/01/10 02:23:14;;;;;;;16.05;9.77;;;2.20;99.90;;;;;;5029141;28;20025;-68
2022/01/10 02:25:40;;;;;;;18.77;9.15;;;2.20;99.90;;;;;;5014332;28;20025;-69
2022/01/10 02:28:06;;;;;;;20.27;8.88;;;2.20;99.90;;;;;;5041935;28;20033;-68
2022/01/10 02:30:32;;;;;;;16.48;9.98;;;2.20;99.90;;;;;;5022631;28;20029;-68
2022/01/10 02:33:00;;;;;;;21.23;9.73;;;2.20;99.90;;;;;;5017237;28;20071;-68
2022/01/10 02:35:32;;;;;;;21.15;10.20;;;2.20;99.90;;;;;;5022047;28;20109;-68
2022/01/10 02:37:58;;;;;;;21.35;10.30;;;2.20;99.90;;;;;;5028744;28;20044;-68
2022/01/10 02:40:26;;;;;;;22.05;10.23;;;2.20;99.90;;;;;;5022629;28;20038;-68
2022/01/10 02:42:52;;;;;;;19.42;9.77;;;2.20;99.90;;;;;;5025898;28;20048;-68
2022/01/10 02:45:19;;;;;;;22.65;10.50;;;2.20;99.90;;;;;;5016026;28;20477;-68
2022/01/10 02:47:46;;;;;;;25.98;10.32;;;2.20;99.90;;;;;;5028140;28;20056;-68
2022/01/10 02:50:12;;;;;;;18.48;10.15;;;2.20;99.90;;;;;;5028455;28;20021;-68
2022/01/10 02:52:39;;;;;;;17.40;10.15;;;2.10;99.90;;;;;;5029145;28;20017;-68
2022/01/10 02:55:06;;;;;;;17.42;10.50;;;2.10;99.90;;;;;;5026114;28;20033;-68
2022/01/10 02:57:33;;;;;;;19.02;10.38;;;2.10;99.90;;;;;;5012640;28;20050;-68
2022/01/10 03:00:00;;;;;;;21.10;10.23;;;2.10;99.90;;;;;;5027535;28;20121;-68
2022/01/10 03:02:31;;;;;;;19.98;9.52;;;2.10;99.90;;;;;;5032260;28;20029;-68
2022/01/10 03:04:57;;;;;;;17.13;9.40;;;2.10;99.90;;;;;;5032007;28;20029;-68
2022/01/10 03:07:23;;;;;;;18.98;10.23;;;2.10;99.90;;;;;;5032141;28;20462;-68
2022/01/10 03:09:50;;;;;;;17.60;9.57;;;2.10;99.90;;;;;;5096086;22;20043;-66
2022/01/10 03:12:16;;;;;;;16.15;9.07;;;2.00;99.90;;;;;;4992771;28;20502;-66
2022/01/10 03:14:42;;;;;;;15.90;8.80;;;2.00;99.90;;;;;;4993470;28;20038;-64
2022/01/10 03:17:10;;;;;;;15.35;9.05;;;2.00;99.90;;;;;;4993453;28;20022;-66
2022/01/10 03:19:36;;;;;;;16.88;9.55;;;2.00;99.90;;;;;;4993077;28;20026;-65
2022/01/10 03:22:03;;;;;;;20.45;10.30;;;2.00;99.90;;;;;;4993653;28;20646;-64
2022/01/10 03:24:29;;;;;;;18.75;9.00;;;1.90;99.90;;;;;;4992799;28;20049;-63
2022/01/10 03:26:55;;;;;;;19.20;9.65;;;2.00;99.90;;;;;;4993507;28;20081;-65
2022/01/10 03:29:21;;;;;;;17.80;9.77;;;2.00;99.90;;;;;;4993181;28;20026;-65
2022/01/10 03:31:47;;;;;;;17.95;10.18;;;2.00;99.90;;;;;;4993342;28;20069;-67
2022/01/10 03:34:13;;;;;;;18.67;9.30;;;2.00;99.90;;;;;;4992101;28;20437;-67
2022/01/10 03:36:40;;;;;;;20.50;10.05;;;2.00;99.90;;;;;;4990226;28;20030;-67
2022/01/10 03:39:06;;;;;;;18.90;9.32;;;2.00;99.90;;;;;;4992229;28;20103;-66
2022/01/10 03:41:32;;;;;;;18.45;9.23;;;2.00;99.90;;;;;;4992067;28;20474;-66
2022/01/10 03:43:58;;;;;;;18.13;9.30;;;2.10;99.90;;;;;;4992901;28;20030;-66
2022/01/10 03:46:24;;;;;;;16.20;8.77;;;2.10;99.90;;;;;;4993054;28;20390;-65
2022/01/10 03:48:49;;;;;;;18.88;9.32;;;2.10;99.90;;;;;;4991895;28;20034;-66
2022/01/10 03:51:15;;;;;;;17.15;9.10;;;2.10;99.90;;;;;;4992495;28;20022;-66
2022/01/10 03:53:41;;;;;;;18.80;10.18;;;2.20;99.90;;;;;;4992186;28;20032;-65
2022/01/10 03:56:07;;;;;;;18.90;9.55;;;2.10;99.90;;;;;;4993104;28;20665;-66
2022/01/10 03:58:33;;;;;;;17.05;9.73;;;2.20;99.90;;;;;;4991818;28;20030;-66
2022/01/10 04:01:01;;;;;;;19.50;10.07;;;2.20;99.90;;;;;;4993403;28;20036;-65
2022/01/10 04:03:27;;;;;;;19.65;9.25;;;2.10;99.90;;;;;;4992369;28;20034;-64
2022/01/10 04:05:53;;;;;;;18.90;9.35;;;2.10;99.90;;;;;;4992459;28;20030;-65
2022/01/10 04:08:19;;;;;;;25.13;10.15;;;2.10;99.90;;;;;;4992112;28;20160;-64
2022/01/10 04:10:44;;;;;;;21.88;9.32;;;2.20;99.90;;;;;;4992573;28;20030;-65
2022/01/10 04:13:10;;;;;;;18.23;9.55;;;2.10;99.90;;;;;;4992026;28;20445;-64
2022/01/10 04:15:36;;;;;;;20.60;9.82;;;2.10;99.90;;;;;;4992882;28;20022;-66
2022/01/10 04:18:02;;;;;;;20.58;9.95;;;2.10;99.90;;;;;;4991923;28;20415;-65
2022/01/10 04:20:28;;;;;;;17.85;9.32;;;2.00;99.90;;;;;;4992645;28;20023;-67
2022/01/10 04:22:54;;;;;;;17.77;9.13;;;2.00;99.90;;;;;;4993424;28;20037;-66
2022/01/10 04:25:20;;;;;;;19.33;9.23;;;2.00;99.90;;;;;;4992476;28;20088;-66
2022/01/10 04:27:46;;;;;;;18.33;9.10;;;2.00;99.90;;;;;;4991061;28;20026;-65
2022/01/10 04:30:11;;;;;;;18.48;9.30;;;2.00;99.90;;;;;;4992253;28;20101;-65
2022/01/10 04:32:38;;;;;;;21.80;8.88;;;2.00;99.90;;;;;;4992132;28;20030;-66
2022/01/10 04:35:05;;;;;;;20.52;8.85;;;1.90;99.90;;;;;;4991535;28;20113;-66
2022/01/10 04:37:31;;;;;;;16.17;8.93;;;1.90;99.90;;;;;;4991620;28;20026;-66
2022/01/10 04:39:57;;;;;;;19.08;9.80;;;2.00;99.90;;;;;;4991273;28;20030;-65
2022/01/10 04:42:22;;;;;;;20.48;9.70;;;2.00;99.90;;;;;;4992148;28;20022;-66
2022/01/10 04:44:49;;;;;;;18.25;9.20;;;2.00;99.90;;;;;;4991720;28;20030;-65
2022/01/10 04:47:15;;;;;;;20.98;8.90;;;2.10;99.90;;;;;;4990293;28;20050;-66
2022/01/10 04:50:04;;;;;;;17.85;9.25;;;2.00;99.90;;;;;;4991810;28;20081;-69
2022/01/10 04:52:28;;;;;;;19.17;8.82;;;2.00;99.90;;;;;;4992138;28;20030;-66
2022/01/10 04:54:53;;;;;;;18.58;9.32;;;2.10;99.90;;;;;;4991621;28;20061;-66
2022/01/10 04:57:19;;;;;;;21.77;9.45;;;2.10;99.90;;;;;;4991124;28;20041;-66
2022/01/10 04:59:45;;;;;;;16.60;8.93;;;2.00;99.90;;;;;;4991605;28;20030;-65
2022/01/10 05:02:10;;;;;;;14.82;8.73;;;2.00;99.90;;;;;;4991873;28;20588;-66
2022/01/10 05:04:36;;;;;;;17.15;8.98;;;2.00;99.90;;;;;;4991100;28;20042;-66
2022/01/10 05:07:02;;;;;;;19.30;8.80;;;2.10;99.90;;;;;;4990394;28;20415;-66
2022/01/10 05:09:28;;;;;;;18.13;8.75;;;2.10;99.90;;;;;;4989909;28;20057;-66
2022/01/10 05:11:54;;;;;;;21.10;9.10;;;2.10;99.90;;;;;;4991120;28;20057;-65
2022/01/10 05:14:21;;;;;;;18.20;9.20;;;2.10;99.90;;;;;;4991418;28;20114;-66
2022/01/10 05:16:47;;;;;;;18.55;9.77;;;2.10;99.90;;;;;;4990721;28;20100;-66
2022/01/10 05:19:12;;;;;;;16.65;9.27;;;2.10;99.90;;;;;;4990257;28;20099;-65
2022/01/10 05:21:38;;;;;;;20.50;9.85;;;2.10;99.90;;;;;;4990816;28;20121;-65
2022/01/10 05:24:04;;;;;;;18.95;9.63;;;2.00;99.90;;;;;;4989941;28;20446;-66
2022/01/10 05:26:30;;;;;;;18.27;9.88;;;2.00;99.90;;;;;;4991254;28;20034;-67
2022/01/10 05:28:55;;;;;;;25.75;10.32;;;1.90;99.90;;;;;;4989706;28;20489;-66
2022/01/10 05:31:22;;;;;;;20.85;9.52;;;2.00;99.90;;;;;;4991214;28;20108;-65
2022/01/10 05:33:48;;;;;;;20.02;9.20;;;2.00;99.90;;;;;;4990580;28;20455;-66
2022/01/10 05:36:14;;;;;;;20.83;9.32;;;2.00;99.90;;;;;;4989186;28;20058;-66
2022/01/10 05:38:40;;;;;;;19.83;9.80;;;2.00;99.90;;;;;;4990156;28;20127;-65
2022/01/10 05:41:06;;;;;;;15.93;9.10;;;2.00;99.90;;;;;;4990713;28;20098;-64
2022/01/10 05:43:31;;;;;;;17.92;10.05;;;2.00;99.90;;;;;;4990930;28;20043;-66
2022/01/10 05:45:58;;;;;;;21.63;9.65;;;1.90;99.90;;;;;;4990621;28;20030;-66
2022/01/10 05:48:29;;;;;;;16.58;9.10;;;2.00;99.90;;;;;;4990088;28;20029;-66
2022/01/10 05:50:55;;;;;;;20.08;9.77;;;1.90;99.90;;;;;;4990873;28;20438;-64
2022/01/10 05:53:21;;;;;;;20.52;9.60;;;2.00;99.90;;;;;;4990528;28;20117;-65
2022/01/10 05:55:47;;;;;;;22.17;10.07;;;2.00;99.90;;;;;;4990842;28;20193;-65
2022/01/10 05:58:15;;;;;;;21.70;9.88;;;2.10;99.90;;;;;;4989922;28;20026;-65
2022/01/10 06:00:41;;;;;;;18.92;9.65;;;2.00;99.90;;;;;;4990753;28;20030;-65
2022/01/10 06:03:06;;;;;;;17.65;9.68;;;2.00;99.90;;;;;;4989913;28;20026;-66
2022/01/10 06:05:32;;;;;;;16.20;9.00;;;2.00;99.90;;;;;;4990779;28;20042;-65
2022/01/10 06:07:59;;;;;;;18.85;9.48;;;2.00;99.90;;;;;;4988871;28;20022;-64
2022/01/10 06:10:25;;;;;;;19.27;9.52;;;2.00;99.90;;;;;;4989940;28;20022;-64
2022/01/10 06:12:52;;;;;;;22.08;10.15;;;2.00;99.90;;;;;;4990433;28;20073;-65
2022/01/10 06:15:18;;;;;;;20.92;9.88;;;2.00;99.90;;;;;;4989559;28;20150;-68
2022/01/10 06:17:43;;;;;;;30.25;12.15;;;2.00;99.90;;;;;;4988833;28;20140;-65
2022/01/10 06:20:09;;;;;;;18.15;10.25;;;2.00;99.90;;;;;;4988811;28;20034;-67
2022/01/10 06:22:35;;;;;;;26.30;10.30;;;2.00;99.90;;;;;;4988004;28;20038;-66
2022/01/10 06:25:01;;;;;;;24.70;9.63;;;2.00;99.90;;;;;;4989309;28;20117;-65
2022/01/10 06:27:27;;;;;;;20.83;10.77;;;2.00;99.90;;;;;;4988525;28;20026;-65
2022/01/10 06:29:53;;;;;;;20.17;10.68;;;2.00;99.90;;;;;;4990362;28;20019;-65
2022/01/10 06:32:18;;;;;;;22.85;10.38;;;2.00;99.90;;;;;;4990777;28;20371;-66
2022/01/10 06:34:44;;;;;;;18.45;11.00;;;2.00;99.90;;;;;;4990220;28;20080;-66
2022/01/10 06:37:10;;;;;;;22.60;11.15;;;2.00;99.90;;;;;;4989923;28;20037;-66
2022/01/10 06:39:35;;;;;;;18.30;10.80;;;2.00;99.90;;;;;;4990157;28;20030;-67
2022/01/10 06:42:01;;;;;;;26.40;10.80;;;1.90;99.90;;;;;;4990647;28;20623;-65
2022/01/10 06:44:27;;;;;;;17.65;10.55;;;1.90;99.90;;;;;;4983826;28;20057;-65
2022/01/10 06:46:53;;;;;;;18.88;10.10;;;1.80;99.90;;;;;;4990837;28;20022;-65
2022/01/10 06:49:19;;;;;;;17.50;9.80;;;1.80;99.90;;;;;;4989600;28;20057;-66
2022/01/10 06:51:44;;;;;;;19.48;9.13;;;1.80;99.90;;;;;;4990962;28;20462;-66
2022/01/10 06:54:10;;;;;;;20.80;9.73;;;1.80;99.90;;;;;;4990243;28;20033;-66
2022/01/10 06:56:36;;;;;;;24.40;10.43;;;1.90;99.90;;;;;;4990588;28;20077;-64
2022/01/10 06:59:01;;;;;;;22.45;10.95;;;1.90;99.90;;;;;;4989324;28;20037;-65
2022/01/10 07:01:28;;;;;;;21.17;10.55;;;1.90;99.90;;;;;;4990509;28;20046;-65
2022/01/10 07:03:56;;;;;;;20.55;9.98;;;1.90;99.90;;;;;;4990443;28;20513;-66
2022/01/10 07:06:21;;;;;;;21.27;11.25;;;1.90;99.90;;;;;;4990381;28;20573;-66
2022/01/10 07:08:47;;;;;;;22.48;11.52;;;1.90;99.90;;;;;;4989853;28;20106;-66
2022/01/10 07:11:13;;;;;;;18.20;10.50;;;2.00;99.90;;;;;;4990463;28;20478;-65
2022/01/10 07:13:38;;;;;;;18.63;10.98;;;1.90;99.90;;;;;;4990033;28;20062;-66
2022/01/10 07:16:04;;;;;;;23.02;11.63;;;2.00;99.90;;;;;;4990420;28;20578;-65
2022/01/10 07:18:30;;;;;;;22.42;10.98;;;2.00;99.90;;;;;;4988992;28;20026;-65
2022/01/10 07:20:55;;;;;;;20.88;11.07;;;2.00;99.90;;;;;;4990404;28;20026;-66
2022/01/10 07:23:23;;;;;;;22.60;11.68;;;2.10;99.90;;;;;;4989847;28;20097;-66
2022/01/10 07:25:49;;;;;;;22.70;11.52;;;2.10;99.90;;;;;;4989840;28;20408;-64
2022/01/10 07:28:14;;;;;;;22.05;11.38;;;2.10;99.90;;;;;;4989644;28;20033;-64
2022/01/10 07:30:40;;;;;;;23.58;11.70;;;2.10;99.90;;;;;;4989872;28;20038;-65
2022/01/10 07:33:06;;;;;;;22.38;11.48;;;2.20;99.90;;;;;;4990277;28;20054;-65
2022/01/10 07:35:31;;;;;;;24.23;11.68;;;2.20;99.90;;;;;;4989985;28;20479;-66
2022/01/10 07:37:57;;;;;;;20.20;10.30;;;2.20;99.90;;;;;;4989240;28;20398;-66
2022/01/10 07:40:24;;;;;;;21.80;11.00;;;2.10;99.90;;;;;;4990099;28;20033;-66
2022/01/10 07:42:50;;;;;;;21.90;10.77;;;2.10;99.90;;;;;;4989937;28;20041;-65
2022/01/10 07:45:16;;;;;;;25.88;11.32;;;2.00;99.90;;;;;;4989788;28;20040;-66
2022/01/10 07:47:42;;;;;;;33.67;12.93;;;2.10;99.90;;;;;;4991215;28;20043;-68
2022/01/10 07:50:08;;;;;;;32.92;14.18;;;2.00;99.90;;;;;;4993608;28;20483;-66
2022/01/10 07:52:34;;;;;;;36.42;13.23;;;2.00;99.90;;;;;;4993259;28;20553;-67
2022/01/10 07:55:00;;;;;;;32.38;14.88;;;2.00;99.90;;;;;;4993192;28;20030;-67
2022/01/10 07:57:25;;;;;;;35.50;15.07;;;2.00;99.90;;;;;;4991892;28;20030;-65
2022/01/10 07:59:51;;;;;;;35.20;13.95;;;2.00;99.90;;;;;;4993261;28;20054;-65
2022/01/10 08:02:20;;;;;;;33.85;15.52;;;2.10;99.90;;;;;;4993377;28;20030;-65
2022/01/10 08:04:46;;;;;;;34.30;14.48;;;2.10;99.90;;;;;;4993095;28;20045;-68
2022/01/10 08:07:12;;;;;;;34.85;15.25;;;2.10;99.90;;;;;;4993119;28;20026;-66
2022/01/10 08:09:37;;;;;;;40.72;16.35;;;2.10;99.90;;;;;;4992755;28;20110;-65
2022/01/10 08:12:03;;;;;;;32.63;14.82;;;2.20;99.90;;;;;;4993183;28;20030;-67
2022/01/10 08:14:30;;;;;;;40.55;17.35;;;2.20;99.90;;;;;;4992583;28;20022;-66
2022/01/10 08:16:57;;;;;;;40.10;17.67;;;2.30;99.90;;;;;;4993840;28;20109;-66
2022/01/10 08:19:23;;;;;;;36.92;16.92;;;2.20;99.90;;;;;;4992458;28;20026;-66
2022/01/10 08:21:48;;;;;;;38.83;16.45;;;2.30;99.90;;;;;;4992719;28;20053;-66
2022/01/10 08:24:15;;;;;;;37.88;15.18;;;2.30;99.90;;;;;;4991707;28;20499;-68
2022/01/10 08:26:41;;;;;;;41.03;15.98;;;2.30;99.90;;;;;;4990853;28;20030;-66
2022/01/10 08:29:07;;;;;;;33.35;14.95;;;2.30;99.90;;;;;;4991628;28;20029;-67
2022/01/10 08:31:34;;;;;;;34.13;15.43;;;2.40;99.90;;;;;;4992826;28;20027;-66
2022/01/10 08:34:02;;;;;;;40.20;15.20;;;2.40;99.90;;;;;;4992025;28;20038;-66
2022/01/10 08:36:28;;;;;;;64.38;32.70;;;2.40;99.90;;;;;;4992998;28;20387;-65
2022/01/10 08:38:55;;;;;;;40.60;17.17;;;2.40;99.90;;;;;;4990972;28;20183;-65
2022/01/10 08:41:21;;;;;;;35.85;16.48;;;2.60;99.90;;;;;;4992383;28;20045;-65
2022/01/10 08:43:46;;;;;;;35.47;14.95;;;2.60;99.90;;;;;;4992439;28;20656;-65
2022/01/10 08:46:12;;;;;;;36.22;15.27;;;2.60;99.90;;;;;;4992424;28;20046;-66
2022/01/10 08:48:39;;;;;;;39.78;14.98;;;2.60;99.90;;;;;;4991723;28;20391;-66
2022/01/10 08:51:04;;;;;;;63.65;27.40;;;2.70;99.90;;;;;;4992261;28;20029;-65
2022/01/10 08:53:30;;;;;;;38.40;15.98;;;2.70;99.90;;;;;;4991866;28;20522;-67
2022/01/10 08:55:56;;;;;;;40.10;15.77;;;2.70;99.90;;;;;;4991095;28;20057;-66
2022/01/10 08:58:21;;;;;;;31.80;14.80;;;2.70;99.90;;;;;;4986044;28;20026;-66
2022/01/10 09:00:48;;;;;;;30.80;15.00;;;2.70;99.90;;;;;;4991607;28;20125;-65
2022/01/10 09:03:14;;;;;;;35.30;14.98;;;2.60;99.90;;;;;;4996788;28;20026;-66
2022/01/10 09:05:39;;;;;;;33.13;15.48;;;2.60;99.90;;;;;;4992204;28;20054;-66
2022/01/10 09:08:06;;;;;;;32.83;14.20;;;2.60;99.90;;;;;;4990991;28;20108;-65
2022/01/10 09:10:32;;;;;;;29.85;14.80;;;2.60;99.90;;;;;;4991896;28;20023;-65
2022/01/10 09:12:57;;;;;;;33.22;15.10;;;2.70;99.90;;;;;;5017135;22;20045;-68
2022/01/10 09:15:23;;;;;;;33.30;15.15;;;2.70;99.90;;;;;;5011382;28;20049;-68
2022/01/10 09:17:49;;;;;;;32.00;14.07;;;2.70;99.90;;;;;;5010661;28;20033;-68
2022/01/10 09:20:15;;;;;;;30.13;13.88;;;2.70;99.90;;;;;;5011789;28;20025;-68
2022/01/10 09:22:41;;;;;;;31.67;13.70;;;2.70;99.90;;;;;;5008365;28;20026;-69
2022/01/10 09:25:07;;;;;;;34.60;15.18;;;2.60;99.90;;;;;;5010816;28;20030;-68
2022/01/10 09:27:33;;;;;;;40.22;15.50;;;2.60;99.90;;;;;;5011617;28;20033;-68
2022/01/10 09:29:59;;;;;;;36.05;15.82;;;2.50;99.90;;;;;;5010632;28;20026;-68
2022/01/10 09:32:25;;;;;;;32.03;15.55;;;2.50;99.90;;;;;;5011605;28;20025;-68
2022/01/10 09:34:50;;;;;;;36.85;15.32;;;2.60;99.90;;;;;;5010695;28;20029;-69
2022/01/10 09:37:16;;;;;;;35.92;16.52;;;2.60;99.90;;;;;;5011841;28;20026;-68
2022/01/10 09:39:42;;;;;;;30.60;14.57;;;2.60;99.90;;;;;;5011166;28;20022;-68
2022/01/10 09:42:09;;;;;;;34.95;14.75;;;2.70;99.90;;;;;;5011048;28;20052;-68
2022/01/10 09:44:35;;;;;;;30.20;14.63;;;2.70;99.90;;;;;;5010625;28;20022;-68
2022/01/10 09:47:02;;;;;;;32.55;14.57;;;2.80;99.90;;;;;;5010301;28;20032;-68
2022/01/10 09:49:27;;;;;;;30.95;15.70;;;2.80;99.90;;;;;;5011189;28;20046;-68
2022/01/10 09:51:53;;;;;;;31.73;14.73;;;2.90;99.90;;;;;;5011053;28;20457;-69
2022/01/10 09:54:18;;;;;;;28.20;14.00;;;2.90;99.90;;;;;;5011037;28;20044;-68
2022/01/10 09:56:47;;;;;;;30.80;14.02;;;3.00;99.90;;;;;;5010516;28;20037;-68
2022/01/10 09:59:14;;;;;;;35.30;15.43;;;3.00;99.90;;;;;;5009959;28;20105;-68
2022/01/10 10:01:43;;;;;;;35.60;15.35;;;3.10;99.90;;;;;;5010926;28;20037;-68
2022/01/10 10:04:13;;;;;;;36.67;15.95;;;3.10;99.90;;;;;;5010901;28;20026;-68
2022/01/10 10:06:39;;;;;;;31.75;16.00;;;3.00;99.90;;;;;;5009937;28;20034;-69
2022/01/10 10:09:07;;;;;;;37.53;16.52;;;3.10;99.90;;;;;;5009494;28;20072;-69
2022/01/10 10:11:37;;;;;;;31.65;16.35;;;3.00;99.90;;;;;;5010441;28;20033;-69
2022/01/10 10:14:04;;;;;;;36.33;16.05;;;3.00;99.90;;;;;;5010289;28;20022;-67
2022/01/10 10:16:32;;;;;;;34.45;15.88;;;3.00;99.90;;;;;;5001359;28;20500;-68
2022/01/10 10:19:02;;;;;;;38.13;14.80;;;3.00;99.90;;;;;;5009397;28;20196;-68
2022/01/10 10:21:28;;;;;;;38.50;16.27;;;3.00;99.90;;;;;;5010656;28;20030;-68
2022/01/10 10:23:53;;;;;;;31.83;15.60;;;3.10;99.90;;;;;;5010233;28;20037;-69
2022/01/10 10:26:24;;;;;;;33.63;16.33;;;3.10;99.90;;;;;;5010252;28;20109;-69
2022/01/10 10:28:53;;;;;;;35.50;16.35;;;3.20;99.90;;;;;;5009415;28;20049;-68
2022/01/10 10:31:34;;;;;;;36.95;16.98;;;3.20;99.90;;;;;;5010766;28;20032;-69
2022/01/10 10:34:03;;;;;;;35.25;16.35;;;3.20;99.90;;;;;;5010219;28;20025;-69
2022/01/10 10:36:31;;;;;;;35.22;16.60;;;3.20;99.90;;;;;;5010810;28;20367;-69
2022/01/10 10:38:58;;;;;;;35.63;16.48;;;3.30;99.90;;;;;;5009174;28;20036;-69
2022/01/10 10:41:25;;;;;;;32.53;15.45;;;3.30;99.90;;;;;;5010680;28;20041;-69
2022/01/10 10:43:51;;;;;;;35.83;16.55;;;3.30;99.90;;;;;;5009757;28;20030;-69
2022/01/10 10:46:18;;;;;;;32.50;15.95;;;3.40;99.90;;;;;;5010510;28;20037;-68
2022/01/10 10:48:49;;;;;;;33.70;15.43;;;3.40;99.90;;;;;;5009301;28;20460;-69
2022/01/10 10:51:16;;;;;;;35.70;16.33;;;3.40;99.90;;;;;;5011684;28;20056;-69
2022/01/10 10:53:42;;;;;;;30.98;15.55;;;3.40;99.90;;;;;;5009177;28;20029;-69
2022/01/10 10:56:08;;;;;;;34.10;15.25;;;3.50;99.90;;;;;;5009479;28;20033;-69
2022/01/10 10:58:35;;;;;;;30.15;14.23;;;3.50;99.90;;;;;;5009242;28;20398;-69
2022/01/10 11:01:01;;;;;;;31.65;15.40;;;3.50;99.90;;;;;;5009387;28;20037;-69
2022/01/10 11:03:27;;;;;;;29.25;15.27;;;3.50;99.90;;;;;;5010263;28;20121;-69
2022/01/10 11:05:57;;;;;;;32.75;16.17;;;3.50;99.90;;;;;;5009900;28;20117;-69
2022/01/10 11:08:26;;;;;;;31.65;14.52;;;3.60;99.90;;;;;;5009356;28;20018;-69
2022/01/10 11:10:52;;;;;;;34.60;15.95;;;3.60;99.90;;;;;;5009754;28;20114;-69
2022/01/10 11:13:21;;;;;;;33.50;16.85;;;3.70;99.90;;;;;;5009569;28;20061;-69
2022/01/10 11:15:47;;;;;;;31.05;15.73;;;3.80;99.90;;;;;;5009513;28;20057;-69
2022/01/10 11:18:15;;;;;;;33.80;15.88;;;3.80;99.90;;;;;;5009329;28;20065;-69
2022/01/10 11:20:42;;;;;;;30.08;15.73;;;3.80;99.90;;;;;;5010065;28;20124;-69
2022/01/10 11:23:09;;;;;;;34.75;16.27;;;3.90;99.90;;;;;;5010849;28;20514;-69
2022/01/10 11:25:39;;;;;;;31.55;15.38;;;3.90;99.90;;;;;;5013600;28;20025;-69
2022/01/10 11:28:23;;;;;;;25.88;15.30;;;4.00;99.90;;;;;;5026145;28;20383;-69
2022/01/10 11:30:51;;;;;;;38.92;17.60;;;4.00;99.90;;;;;;5013792;28;20029;-69
2022/01/10 11:33:21;;;;;;;29.15;16.95;;;4.10;99.90;;;;;;5013623;28;20490;-69
2022/01/10 11:35:59;;;;;;;35.25;17.20;;;4.20;99.90;;;;;;5013657;28;20103;-69
2022/01/10 11:38:29;;;;;;;30.63;16.42;;;4.20;99.90;;;;;;4993175;28;20038;-69
2022/01/10 11:41:06;;;;;;;34.35;16.58;;;4.30;99.90;;;;;;5021470;28;20045;-69
2022/01/10 11:44:07;;;;;;;31.33;16.23;;;4.30;99.90;;;;;;5013339;28;20098;-69
2022/01/10 11:46:33;;;;;;;32.00;15.95;;;4.30;99.90;;;;;;5013482;28;20464;-69
2022/01/10 11:49:25;;;;;;;33.03;15.50;;;4.30;99.90;;;;;;5029008;28;20108;-69
2022/01/10 11:51:51;;;;;;;34.90;15.98;;;4.30;99.90;;;;;;5008648;28;20034;-69
2022/01/10 11:54:26;;;;;;;28.83;16.00;;;4.30;99.90;;;;;;4999147;28;20045;-68
2022/01/10 11:56:57;;;;;;;34.08;16.60;;;4.30;99.90;;;;;;4993470;28;20103;-69
2022/01/10 11:59:32;;;;;;;34.35;16.15;;;4.30;99.90;;;;;;5024331;28;20026;-68
2022/01/10 12:01:59;;;;;;;30.58;15.57;;;4.30;99.90;;;;;;5013353;28;20034;-69
2022/01/10 12:04:26;;;;;;;33.40;16.02;;;4.30;99.90;;;;;;5013031;28;20053;-69
2022/01/10 12:06:53;;;;;;;31.20;15.75;;;4.30;99.90;;;;;;5013059;28;20038;-69
2022/01/10 12:09:19;;;;;;;32.30;16.98;;;4.30;99.90;;;;;;5028487;28;20029;-69
2022/01/10 12:11:46;;;;;;;26.70;14.60;;;4.30;99.90;;;;;;5012806;28;20112;-69
2022/01/10 12:14:13;;;;;;;29.05;14.60;;;4.30;99.90;;;;;;5008256;28;20080;-69
2022/01/10 12:16:39;;;;;;;23.48;14.57;;;4.30;99.90;;;;;;5013179;28;20061;-68
2022/01/10 12:19:06;;;;;;;24.35;12.88;;;4.40;99.90;;;;;;4998835;28;20132;-69
2022/01/10 12:21:33;;;;;;;24.25;12.95;;;4.40;99.90;;;;;;5001243;28;20387;-69
2022/01/10 12:23:59;;;;;;;28.33;13.90;;;4.50;99.90;;;;;;5012387;28;20026;-68
2022/01/10 12:26:26;;;;;;;27.85;13.57;;;4.50;99.90;;;;;;5009430;28;20026;-69
2022/01/10 12:28:55;;;;;;;30.48;14.65;;;4.60;99.90;;;;;;5011726;28;20033;-69
2022/01/10 12:31:22;;;;;;;27.85;14.02;;;4.60;99.90;;;;;;5012074;28;20029;-69
2022/01/10 12:33:49;;;;;;;30.65;13.57;;;4.60;99.90;;;;;;5006634;28;20022;-68
2022/01/10 12:36:16;;;;;;;22.08;12.65;;;4.60;99.90;;;;;;5026181;28;20132;-69
2022/01/10 12:38:42;;;;;;;28.55;14.20;;;4.60;99.90;;;;;;5010335;28;20034;-68
2022/01/10 12:41:09;;;;;;;25.10;13.65;;;4.60;99.90;;;;;;5010343;28;20040;-68
2022/01/10 12:43:35;;;;;;;25.70;13.13;;;4.60;99.90;;;;;;5011462;28;20025;-69
2022/01/10 12:46:01;;;;;;;25.27;13.07;;;4.60;99.90;;;;;;5011878;28;20029;-69
2022/01/10 12:48:26;;;;;;;26.98;13.57;;;4.60;99.90;;;;;;5010816;28;20026;-68
2022/01/10 12:50:54;;;;;;;26.27;12.40;;;4.50;99.90;;;;;;5011279;28;20030;-69
2022/01/10 12:53:20;;;;;;;22.05;12.63;;;4.50;99.90;;;;;;5012258;28;20030;-70